McComb, Mississippi
Current Conditions -  °F | °C
As of 5:53 PM on Saturday 22 Nov 2014 (Local Time) from KMCB Reporting Station
Clear Clear  
Wind Chill: 62°   Ceiling: Unl
Heat Index: 62°   Visibility: 10mi
Dew Point: 53°   Wind: 5mph
Humidity: 72%   Direction: 110°ESE
Pressure: 30.04"   Gusts: NA
Location:  31.25°N, 90.45°W
Report Text: KMCB 222353Z AUTO 11004KT 10SM CLR 17/12 A3004 RMK AO2 SLP170 T01670117 10206 20167 55014
Loading
Personal Weather Stations






























Interactive Weather Map New forecast layout! Learn more

10-Day Weather Forecast

Advertisements
Track Severe Weather on mobile